Wilkins, Nevada
Current Conditions -  °F | °C
As of 12:15 PM on Sunday 23 Nov 2014 (Local Time) from KENV Reporting Station
Clear Clear  
Wind Chill: 36°   Ceiling: Unl
Heat Index: 43°   Visibility: 10mi
Dew Point: 19°   Wind: 13mph
Humidity: 39%   Direction: 310°NW
Pressure: 30.26"   Gusts: 22mph
Location:  41.0114°N, 114.57°W
Report Text: KENV 232015Z AUTO 31011G19KT 10SM CLR 06/M07 A3026 RMK AO1
Loading
Personal Weather Stations






























Interactive Weather Map New forecast layout! Learn more

10-Day Weather Forecast

Advertisements
Track Severe Weather on mobile